| time (UTC) | temp C | wind direction | speed KPH | gust KPH | rain 1hr cm | rain 24hr cm | rain mn cm | humidity % | barometer mb |
| 20260507200020 | 15 | 5 | 1.6 | 4.8 | 0.00 | 0.05 | 0.05 | 77 | 1012.8 |
| 20260507194519 | 15 | 40 | 3.2 | 4.8 | 0.00 | 0.05 | 0.05 | 75 | 1012.6 |
| 20260507193019 | 16 | 40 | 1.6 | 4.8 | 0.00 | 0.05 | 0.05 | 73 | 1012.4 |
| 20260507191518 | 16 | 42 | 3.2 | 4.8 | 0.00 | 0.05 | 0.05 | 70 | 1012.2 |
| 20260507190018 | 17 | 203 | 0.0 | 1.6 | 0.00 | 0.05 | 0.05 | 65 | 1011.9 |
| 20260507184517 | 17 | 203 | 0.0 | 1.6 | 0.00 | 0.20 | 0.05 | 63 | 1011.9 |
| 20260507183018 | 18 | 203 | 0.0 | 0.0 | 0.00 | 0.20 | 0.05 | 62 | 1011.7 |
| 20260507181515 | 18 | 203 | 1.6 | 4.8 | 0.00 | 0.20 | 0.05 | 60 | 1011.7 |
| 20260507180016 | 19 | 202 | 3.2 | 9.7 | 0.00 | 0.20 | 0.05 | 57 | 1011.5 |
| 20260507174522 | 19 | 165 | 3.2 | 9.7 | 0.00 | 0.58 | 0.05 | 56 | 1011.3 |
| 20260507173018 | 20 | 204 | 6.4 | 11.3 | 0.00 | 0.58 | 0.05 | 56 | 1011.2 |
| 20260507171517 | 20 | 189 | 6.4 | 11.3 | 0.00 | 0.58 | 0.05 | 54 | 1011.1 |
| 20260507170015 | 20 | 190 | 8.0 | 12.9 | 0.00 | 0.58 | 0.05 | 54 | 1011.1 |
| 20260507164512 | 20 | 194 | 4.8 | 16.1 | 0.00 | 0.58 | 0.05 | 54 | 1011.0 |
| 20260507163012 | 20 | 189 | 3.2 | 12.9 | 0.00 | 0.58 | 0.05 | 51 | 1011.0 |
| 20260507161511 | 20 | 201 | 1.6 | 11.3 | 0.00 | 0.58 | 0.05 | 52 | 1010.9 |
| 20260507160015 | 20 | 193 | 9.7 | 17.7 | 0.00 | 0.58 | 0.05 | 51 | 1010.9 |
| 20260507154511 | 20 | 193 | 6.4 | 14.5 | 0.00 | 0.58 | 0.05 | 51 | 1011.0 |
| 20260507153010 | 20 | 211 | 4.8 | 11.3 | 0.00 | 0.58 | 0.05 | 49 | 1011.0 |
| 20260507151509 | 21 | 197 | 4.8 | 8.0 | 0.00 | 0.58 | 0.05 | 48 | 1011.1 |
| 20260507150007 | 20 | 255 | 4.8 | 14.5 | 0.00 | 0.58 | 0.05 | 51 | 1011.1 |
| 20260507144510 | 20 | 159 | 4.8 | 9.7 | 0.00 | 0.71 | 0.05 | 52 | 1011.1 |
| 20260507143005 | 20 | 157 | 3.2 | 14.5 | 0.00 | 0.71 | 0.05 | 54 | 1011.2 |
| 20260507141504 | 20 | 192 | 3.2 | 12.9 | 0.00 | 0.71 | 0.05 | 52 | 1011.3 |
| 20260507140001 | 20 | 239 | 6.4 | 16.1 | 0.00 | 0.71 | 0.05 | 55 | 1011.5 |
| 20260507134600 | 20 | 269 | 1.6 | 9.7 | 0.00 | 1.27 | 0.05 | 54 | 1011.5 |
| 20260507133106 | 20 | 226 | 1.6 | 19.3 | 0.00 | 1.27 | 0.05 | 53 | 1011.8 |
| 20260507131603 | 20 | 186 | 9.7 | 22.5 | 0.00 | 1.27 | 0.05 | 55 | 1011.8 |
| 20260507130108 | 19 | 207 | 3.2 | 9.7 | 0.00 | 1.27 | 0.05 | 58 | 1012.0 |
| 20260507124556 | 19 | 185 | 6.4 | 16.1 | 0.00 | 1.70 | 0.05 | 57 | 1012.1 |
| 20260507123053 | 18 | 140 | 12.9 | 22.5 | 0.00 | 1.70 | 0.05 | 59 | 1012.1 |
| 20260507121604 | 19 | 174 | 6.4 | 14.5 | 0.00 | 1.70 | 0.05 | 59 | 1012.3 |
| 20260507120052 | 18 | 219 | 3.2 | 14.5 | 0.00 | 1.70 | 0.05 | 59 | 1012.3 |
| 20260507114604 | 18 | 159 | 8.0 | 14.5 | 0.00 | 1.70 | 0.05 | 59 | 1012.4 |
| 20260507113050 | 18 | 212 | 6.4 | 17.7 | 0.00 | 1.70 | 0.05 | 59 | 1012.5 |
| 20260507111546 | 18 | 121 | 3.2 | 14.5 | 0.00 | 1.70 | 0.05 | 61 | 1012.6 |
| 20260507110046 | 18 | 239 | 4.8 | 12.9 | 0.00 | 1.70 | 0.05 | 65 | 1012.7 |
| 20260507104544 | 18 | 127 | 6.4 | 12.9 | 0.00 | 1.70 | 0.05 | 63 | 1012.9 |
| 20260507103044 | 17 | 161 | 6.4 | 12.9 | 0.00 | 1.70 | 0.05 | 64 | 1013.0 |
| 20260507101540 | 17 | 249 | 4.8 | 11.3 | 0.00 | 1.70 | 0.05 | 65 | 1013.2 |
| 20260507100041 | 17 | 207 | 4.8 | 11.3 | 0.00 | 1.70 | 0.05 | 66 | 1013.2 |
| 20260507094539 | 17 | 211 | 4.8 | 9.7 | 0.00 | 1.73 | 0.05 | 66 | 1013.2 |
| 20260507093033 | 16 | 323 | 3.2 | 11.3 | 0.00 | 1.73 | 0.05 | 66 | 1013.2 |
| 20260507091531 | 16 | 144 | 3.2 | 9.7 | 0.00 | 1.73 | 0.05 | 66 | 1013.2 |
| 20260507090030 | 15 | 165 | 3.2 | 14.5 | 0.00 | 1.73 | 0.05 | 71 | 1013.1 |
| 20260507084526 | 15 | 161 | 1.6 | 9.7 | 0.00 | 1.73 | 0.05 | 73 | 1013.2 |
| 20260507083023 | 15 | 84 | 4.8 | 14.5 | 0.00 | 1.73 | 0.05 | 74 | 1013.0 |
| 20260507081535 | 15 | 159 | 4.8 | 11.3 | 0.00 | 1.73 | 0.05 | 77 | 1013.0 |
| 20260507080018 | 15 | 185 | 1.6 | 4.8 | 0.00 | 1.73 | 0.05 | 79 | 1012.9 |
| 20260507074524 | 13 | 40 | 3.2 | 6.4 | 0.00 | 1.73 | 0.05 | 81 | 1012.8 |
| 20260507073012 | 13 | 342 | 3.2 | 14.5 | 0.00 | 1.73 | 0.05 | 81 | 1012.8 |
| 20260507071508 | 12 | 5 | 6.4 | 14.5 | 0.00 | 1.73 | 0.05 | 83 | 1012.8 |
| 20260507070010 | 12 | 11 | 3.2 | 9.7 | 0.00 | 1.73 | 0.05 | 84 | 1012.8 |
| 20260507064507 | 12 | 339 | 6.4 | 14.5 | 0.00 | 1.75 | 0.05 | 84 | 1012.6 |
| 20260507063101 | 12 | 340 | 6.4 | 17.7 | 0.00 | 1.75 | 0.05 | 85 | 1012.5 |
| 20260507061607 | 12 | 13 | 4.8 | 9.7 | 0.00 | 1.75 | 0.05 | 87 | 1012.4 |
| 20260507060055 | 11 | 5 | 3.2 | 8.0 | 0.00 | 1.75 | 0.05 | 88 | 1012.3 |
| 20260507054633 | 11 | 336 | 4.8 | 12.9 | 0.00 | 1.75 | 0.05 | 89 | 1012.3 |
| 20260507053052 | 11 | 338 | 3.2 | 6.4 | 0.00 | 1.75 | 0.05 | 90 | 1012.1 |
| 20260507051546 | 10 | 33 | 3.2 | 6.4 | 0.00 | 1.75 | 0.05 | 90 | 1011.9 |
| 20260507050046 | 10 | 47 | 3.2 | 6.4 | 0.00 | 1.75 | 0.05 | 90 | 1011.7 |
| 20260507044549 | 10 | 350 | 1.6 | 8.0 | 0.00 | 1.75 | 0.05 | 90 | 1011.6 |
| 20260507043042 | 10 | 46 | 3.2 | 8.0 | 0.00 | 1.75 | 0.05 | 90 | 1011.3 |
| 20260507041541 | 10 | 13 | 1.6 | 9.7 | 0.00 | 1.75 | 0.05 | 90 | 1011.2 |
| 20260507040038 | 10 | 32 | 1.6 | 6.4 | 0.03 | 1.75 | 0.05 | 90 | 1011.2 |
| 20260507034535 | 10 | 26 | 4.8 | 8.0 | 0.03 | 1.80 | 0.05 | 90 | 1011.2 |
| 20260507033034 | 10 | 42 | 6.4 | 11.3 | 0.03 | 1.80 | 0.05 | 90 | 1011.1 |
| 20260507031533 | 10 | 31 | 1.6 | 9.7 | 0.03 | 1.80 | 0.05 | 90 | 1011.1 |
| 20260507030041 | 10 | 38 | 4.8 | 11.3 | 0.00 | 1.78 | 0.03 | 90 | 1011.1 |
| 20260507024536 | 11 | 35 | 1.6 | 9.7 | 0.00 | 1.93 | 0.03 | 90 | 1011.0 |
| 20260507023030 | 11 | 9 | 6.4 | 12.9 | 0.00 | 1.93 | 0.03 | 90 | 1011.0 |
| 20260507021529 | 11 | 41 | 6.4 | 16.1 | 0.00 | 1.93 | 0.03 | 90 | 1011.2 |
| 20260507020028 | 11 | 29 | 1.6 | 8.0 | 0.00 | 1.93 | 0.03 | 91 | 1011.2 |
| 20260507014538 | 11 | 42 | 4.8 | 12.9 | 0.00 | 1.93 | 0.03 | 91 | 1011.0 |
| 20260507013025 | 11 | 22 | 1.6 | 4.8 | 0.00 | 1.93 | 0.03 | 91 | 1011.0 |
| 20260507011528 | 11 | 54 | 6.4 | 14.5 | 0.00 | 1.93 | 0.03 | 90 | 1010.8 |
| 20260507010023 | 11 | 32 | 0.0 | 4.8 | 0.03 | 1.93 | 0.03 | 90 | 1010.9 |
| 20260507004524 | 11 | 327 | 3.2 | 4.8 | 0.03 | 1.93 | 0.03 | 90 | 1010.9 |
| 20260507003021 | 11 | 355 | 3.2 | 12.9 | 0.03 | 1.93 | 0.03 | 90 | 1010.7 |
| 20260507001525 | 11 | 19 | 11.3 | 19.3 | 0.03 | 1.93 | 0.03 | 90 | 1010.7 |
| 20260507000026 | 11 | 35 | 8.0 | 16.1 | 0.00 | 1.93 | 0.00 | 90 | 1010.7 |
| 20260506234516 | 11 | 331 | 6.4 | 16.1 | 0.00 | 1.93 | 0.00 | 89 | 1010.7 |
| 20260506233015 | 11 | 30 | 3.2 | 9.7 | 0.00 | 1.93 | 0.00 | 88 | 1010.7 |
| 20260506231514 | 11 | 355 | 4.8 | 9.7 | 0.00 | 1.93 | 0.00 | 88 | 1010.7 |
| 20260506230012 | 11 | 57 | 4.8 | 17.7 | 0.00 | 1.93 | 0.00 | 88 | 1010.5 |
| 20260506224512 | 11 | 29 | 9.7 | 22.5 | 0.00 | 1.93 | 0.00 | 88 | 1010.5 |
| 20260506223009 | 11 | 42 | 14.5 | 22.5 | 0.00 | 1.93 | 0.00 | 89 | 1010.4 |
| 20260506221506 | 11 | 346 | 6.4 | 9.7 | 0.00 | 1.93 | 0.00 | 90 | 1010.4 |
| 20260506220014 | 11 | 348 | 6.4 | 14.5 | 0.00 | 1.93 | 0.00 | 90 | 1010.4 |
| 20260506214503 | 11 | 20 | 4.8 | 11.3 | 0.00 | 2.03 | 1.93 | 90 | 1010.3 |
| 20260506213002 | 11 | 25 | 6.4 | 19.3 | 0.00 | 2.03 | 1.93 | 91 | 1010.2 |
| 20260506211507 | 11 | 37 | 6.4 | 9.7 | 0.00 | 2.03 | 1.93 | 91 | 1010.3 |
| 20260506210005 | 11 | 346 | 6.4 | 12.9 | 0.00 | 2.03 | 1.93 | 92 | 1010.4 |
| 20260506204501 | 11 | 342 | 1.6 | 6.4 | 0.00 | 2.13 | 1.93 | 91 | 1010.2 |
| 20260506203100 | 11 | 42 | 3.2 | 8.0 | 0.00 | 2.13 | 1.93 | 91 | 1010.0 |
| 20260506201559 | 11 | 36 | 4.8 | 12.9 | 0.00 | 2.13 | 1.93 | 91 | 1010.0 |